KAXS

Altus / Quartz Mountain Regional Airport

Altus, Oklahoma, USA
METAR KAXS 092155Z AUTO 30004KT 10SM CLR 10/M07 A3035 RMK AO2 T01001069
Observed Flight Rules
Dec-9 @ 21:55 UTC (24 minutes ago) Visual Flight Rules
Wind Visibility Clouds
300° at 4 knots 10 miles
  • Clear skies
Temperatures Readings
Current 10°C / 50°F
Dewpoint -7°C / 19°F
Humidity 30%
Altimeter 30.35" Hg
Pressure 1028 hPa
Elevation 437
METAR KAXS 092155Z AUTO 30004KT 10SM CLR 10/M07 A3035 RMK AO2 T01001069
Observed Flight Rules
Dec-9 @ 21:55 UTC
(24 minutes ago)
VFR
Wind Visibility
300° at 4 knots 10 miles
Clouds
  • Clear skies
Temperature Dewpoint
10°C / 50°F -7°C / 19°F
Humidity Altimeter Pressure
30% 30.35" Hg 1028 hPa